createdAt,value
2019-03-09T00:01:21.768Z,88.50
2019-03-09T00:03:51.129Z,88.80
2019-03-09T00:06:20.787Z,88.80
2019-03-09T00:08:50.147Z,89.30
2019-03-09T00:11:19.530Z,89.60
2019-03-09T00:13:48.911Z,89.60
2019-03-09T00:16:18.290Z,89.70
2019-03-09T00:18:48.037Z,89.70
2019-03-09T00:21:17.729Z,89.90
2019-03-09T00:23:54.589Z,90.00
2019-03-09T00:26:34.352Z,90.10
2019-03-09T00:29:14.346Z,90.30
2019-03-09T00:31:54.501Z,90.50
2019-03-09T00:34:23.873Z,90.70
2019-03-09T00:36:53.262Z,90.90
2019-03-09T00:39:23.280Z,91.20
2019-03-09T00:41:52.952Z,91.20
2019-03-09T00:44:22.297Z,91.40
2019-03-09T00:46:51.684Z,91.70
2019-03-09T00:49:21.075Z,92.00
2019-03-09T00:51:50.477Z,92.10
2019-03-09T00:54:19.865Z,92.20
2019-03-09T00:56:49.590Z,92.60
2019-03-09T00:59:19.287Z,92.50
2019-03-09T01:01:48.665Z,93.00
2019-03-09T01:04:18.046Z,93.10
2019-03-09T01:06:47.519Z,93.10
2019-03-09T01:09:16.928Z,93.30
2019-03-09T01:11:46.642Z,93.40
2019-03-09T01:14:16.036Z,93.60
2019-03-09T01:16:45.410Z,93.90
2019-03-09T01:19:14.818Z,93.90
2019-03-09T01:21:44.466Z,94.00
2019-03-09T01:24:13.827Z,94.30
2019-03-09T01:26:43.204Z,94.20
2019-03-09T01:29:12.584Z,94.10
2019-03-09T01:31:41.962Z,94.20
2019-03-09T01:34:11.326Z,94.60
2019-03-09T01:36:40.712Z,94.50
2019-03-09T01:39:10.149Z,94.50
2019-03-09T01:41:39.523Z,94.50
2019-03-09T01:44:08.919Z,94.70
2019-03-09T01:46:38.361Z,94.90
2019-03-09T01:49:07.752Z,94.90
2019-03-09T01:51:37.133Z,94.70
2019-03-09T01:54:06.511Z,95.00
2019-03-09T01:56:36.016Z,95.00
2019-03-09T01:59:05.414Z,95.00
2019-03-09T02:01:34.792Z,95.30
2019-03-09T02:04:04.363Z,95.50
2019-03-09T02:06:33.731Z,95.50
2019-03-09T02:09:04.051Z,95.60
2019-03-09T02:11:33.428Z,95.40
2019-03-09T02:14:02.959Z,95.50
2019-03-09T02:16:33.241Z,95.60
2019-03-09T02:19:02.682Z,95.70
2019-03-09T02:21:32.137Z,95.60
2019-03-09T02:24:01.517Z,95.70
2019-03-09T02:26:30.900Z,95.50
2019-03-09T02:29:01.194Z,95.40
2019-03-09T02:31:30.690Z,95.40
2019-03-09T02:34:00.106Z,95.30
2019-03-09T02:36:30.329Z,95.50
2019-03-09T02:39:01.343Z,95.60
2019-03-09T02:41:30.711Z,95.60
2019-03-09T02:44:00.091Z,95.90
2019-03-09T02:46:29.698Z,95.70
2019-03-09T02:48:59.099Z,95.60
2019-03-09T02:51:28.472Z,95.60
2019-03-09T02:53:57.872Z,95.50
2019-03-09T02:56:27.558Z,96.20
2019-03-09T02:58:56.936Z,95.70
2019-03-09T03:01:44.108Z,95.70
2019-03-09T03:04:13.751Z,96.00
2019-03-09T03:06:43.123Z,95.90
2019-03-09T03:09:12.589Z,95.90
2019-03-09T03:11:41.960Z,95.80
2019-03-09T03:14:11.349Z,96.00
2019-03-09T03:16:41.011Z,95.90
2019-03-09T03:19:10.395Z,96.00
2019-03-09T03:21:39.840Z,95.80
2019-03-09T03:24:09.237Z,95.90
2019-03-09T03:26:38.598Z,95.80
2019-03-09T03:29:07.985Z,95.90
2019-03-09T03:31:37.367Z,96.00
2019-03-09T03:34:06.780Z,96.00
2019-03-09T03:36:36.213Z,96.00
2019-03-09T03:39:07.928Z,96.20
2019-03-09T03:41:37.286Z,96.40
2019-03-09T03:44:06.667Z,96.30
2019-03-09T03:46:36.041Z,96.50
2019-03-09T03:49:05.482Z,96.40
2019-03-09T03:51:34.865Z,96.70
2019-03-09T03:54:04.313Z,96.50
2019-03-09T03:56:33.686Z,96.70
2019-03-09T03:59:03.196Z,96.70
2019-03-09T04:01:32.646Z,96.50
2019-03-09T04:04:02.117Z,96.70
2019-03-09T04:06:32.002Z,96.60
2019-03-09T04:09:01.969Z,96.80
2019-03-09T04:11:31.691Z,96.70
2019-03-09T04:14:01.551Z,96.90
2019-03-09T04:16:30.952Z,96.70
2019-03-09T04:19:00.340Z,96.80
2019-03-09T04:21:29.783Z,96.80
2019-03-09T04:23:59.171Z,96.80
2019-03-09T04:26:28.635Z,96.60
2019-03-09T04:28:58.014Z,96.60
2019-03-09T04:31:28.956Z,96.50
2019-03-09T04:33:58.339Z,96.60
2019-03-09T04:36:27.832Z,96.60
2019-03-09T04:38:57.227Z,96.50
2019-03-09T04:41:26.665Z,96.50
2019-03-09T04:43:56.032Z,96.50
2019-03-09T04:46:25.423Z,96.40
2019-03-09T04:48:54.811Z,96.40
2019-03-09T04:51:25.338Z,96.40
2019-03-09T04:53:54.717Z,96.40
2019-03-09T04:56:24.096Z,96.40
2019-03-09T04:58:53.475Z,96.30
2019-03-09T05:01:22.871Z,96.30
2019-03-09T05:04:22.259Z,96.40
2019-03-09T05:06:51.671Z,96.30
2019-03-09T05:10:04.710Z,96.20
2019-03-09T05:12:34.097Z,96.20
2019-03-09T05:15:04.345Z,96.00
2019-03-09T05:17:33.740Z,96.20
2019-03-09T05:20:06.263Z,96.00
2019-03-09T05:22:35.651Z,96.20
2019-03-09T05:25:05.747Z,96.00
2019-03-09T05:27:35.132Z,95.90
2019-03-09T05:30:07.879Z,95.90
2019-03-09T05:32:37.269Z,95.90
2019-03-09T05:35:07.511Z,95.90
2019-03-09T05:37:43.110Z,95.90
2019-03-09T05:40:09.813Z,95.90
2019-03-09T05:42:39.179Z,95.80
2019-03-09T05:45:09.290Z,95.80
2019-03-09T05:47:38.989Z,95.70
2019-03-09T05:50:09.107Z,95.80
2019-03-09T05:52:38.577Z,95.80
2019-03-09T05:55:12.072Z,95.80
2019-03-09T05:57:41.469Z,95.80
2019-03-09T06:00:14.556Z,95.80
2019-03-09T06:02:43.929Z,95.80
2019-03-09T06:05:34.865Z,95.70
2019-03-09T06:08:05.951Z,95.70
2019-03-09T06:10:35.412Z,95.30
2019-03-09T06:13:05.606Z,95.50
2019-03-09T06:15:34.988Z,95.60
2019-03-09T06:18:06.482Z,95.50
2019-03-09T06:20:35.978Z,95.40
2019-03-09T06:23:05.443Z,95.50
2019-03-09T06:25:34.821Z,95.50
2019-03-09T06:28:04.264Z,95.60
2019-03-09T06:30:33.886Z,95.60
2019-03-09T06:33:26.480Z,95.50
2019-03-09T06:36:15.905Z,95.50
2019-03-09T06:38:55.363Z,95.40
2019-03-09T06:41:44.715Z,95.40
2019-03-09T06:44:14.335Z,95.30
2019-03-09T06:46:43.715Z,95.10
2019-03-09T06:49:13.099Z,95.10
2019-03-09T06:51:42.497Z,95.10
2019-03-09T06:54:11.876Z,95.10
2019-03-09T06:56:41.505Z,95.00
2019-03-09T06:59:11.966Z,95.00
2019-03-09T07:01:41.368Z,95.00
2019-03-09T07:04:12.448Z,95.20
2019-03-09T07:06:42.269Z,95.00
2019-03-09T07:15:55.252Z,94.90
2019-03-09T07:18:24.717Z,94.90
2019-03-09T07:20:54.120Z,95.00
2019-03-09T07:23:23.495Z,94.90
2019-03-09T07:25:53.205Z,94.90
2019-03-09T07:28:25.997Z,94.80
2019-03-09T07:30:55.375Z,94.80
2019-03-09T07:33:24.787Z,94.80
2019-03-09T07:35:54.163Z,94.80
2019-03-09T07:38:23.944Z,94.70
2019-03-09T07:40:53.338Z,94.70
2019-03-09T07:43:22.727Z,94.70
2019-03-09T07:45:52.183Z,95.10
2019-03-09T07:48:21.562Z,94.60
2019-03-09T07:50:50.956Z,94.50
2019-03-09T07:53:20.392Z,94.40
2019-03-09T07:55:49.828Z,94.30
2019-03-09T07:58:19.203Z,94.20
2019-03-09T08:00:48.839Z,94.30
2019-03-09T08:03:18.461Z,94.20
2019-03-09T08:05:47.842Z,94.20
2019-03-09T08:08:17.224Z,94.20
2019-03-09T08:10:46.617Z,94.20
2019-03-09T08:13:16.262Z,94.10
2019-03-09T08:15:45.742Z,94.10
2019-03-09T08:18:15.115Z,94.10
2019-03-09T08:20:44.518Z,94.10
2019-03-09T08:23:13.907Z,94.10
2019-03-09T08:25:43.365Z,94.10
2019-03-09T08:28:13.171Z,94.00
2019-03-09T08:30:42.562Z,93.90
2019-03-09T08:33:11.953Z,93.90
2019-03-09T08:35:42.302Z,93.80
2019-03-09T08:38:31.791Z,93.90
2019-03-09T08:41:01.505Z,93.80
2019-03-09T08:43:30.903Z,93.80
2019-03-09T08:46:00.264Z,93.80
2019-03-09T08:48:29.672Z,93.80
2019-03-09T08:50:59.317Z,93.80
2019-03-09T08:53:28.939Z,93.80
2019-03-09T08:55:59.772Z,93.90
2019-03-09T08:58:29.182Z,93.80
2019-03-09T09:00:58.539Z,93.80
2019-03-09T09:03:27.885Z,93.60
2019-03-09T09:05:57.247Z,93.60
2019-03-09T09:08:26.626Z,93.40
2019-03-09T09:10:55.998Z,93.50
2019-03-09T09:13:25.396Z,93.40
2019-03-09T09:15:54.752Z,93.50
2019-03-09T09:18:24.131Z,93.50
2019-03-09T09:20:53.593Z,93.30
2019-03-09T09:23:22.952Z,93.10
2019-03-09T09:25:52.321Z,93.10
2019-03-09T09:28:21.694Z,93.20
2019-03-09T09:30:51.080Z,93.10
2019-03-09T09:33:20.494Z,92.80
2019-03-09T09:35:49.851Z,92.80
2019-03-09T09:38:19.227Z,92.90
2019-03-09T09:40:48.601Z,93.00
2019-03-09T09:43:17.974Z,93.00
2019-03-09T09:45:47.654Z,92.90
2019-03-09T09:48:17.056Z,92.70
2019-03-09T09:50:46.427Z,92.80
2019-03-09T09:53:16.027Z,92.50
2019-03-09T09:55:45.395Z,92.50
2019-03-09T09:58:15.016Z,92.50
2019-03-09T10:00:44.390Z,92.20
2019-03-09T10:03:13.767Z,92.20
2019-03-09T10:05:43.136Z,92.30
2019-03-09T10:08:12.516Z,92.20
2019-03-09T10:10:41.893Z,92.00
2019-03-09T10:13:11.363Z,92.30
2019-03-09T10:15:40.960Z,92.20
2019-03-09T10:18:10.355Z,92.00
2019-03-09T10:20:39.727Z,91.70
2019-03-09T10:23:09.103Z,91.60
2019-03-09T10:25:38.472Z,91.40
2019-03-09T10:28:08.113Z,91.30
2019-03-09T10:30:37.489Z,91.10
2019-03-09T10:33:06.851Z,91.00
2019-03-09T10:35:36.296Z,91.10
2019-03-09T10:38:05.903Z,91.10
2019-03-09T10:40:35.277Z,91.30
2019-03-09T10:43:04.921Z,90.90
2019-03-09T10:45:34.303Z,91.20
2019-03-09T10:48:03.818Z,91.30
2019-03-09T10:50:33.218Z,91.30
2019-03-09T10:53:02.593Z,91.20
2019-03-09T10:55:35.892Z,90.90
2019-03-09T10:58:05.744Z,90.90
2019-03-09T11:00:44.080Z,90.90
2019-03-09T11:03:13.438Z,90.90
2019-03-09T11:05:42.826Z,90.60
2019-03-09T11:08:12.192Z,90.90
2019-03-09T11:10:41.809Z,90.70
2019-03-09T11:13:11.182Z,90.60
2019-03-09T11:15:40.587Z,90.80
2019-03-09T11:18:10.017Z,90.60
2019-03-09T11:20:39.703Z,90.60
2019-03-09T11:23:09.070Z,90.50
2019-03-09T11:25:38.443Z,90.30
2019-03-09T11:28:11.461Z,89.50
2019-03-09T11:30:40.918Z,90.10
2019-03-09T11:33:10.376Z,90.00
2019-03-09T11:35:39.748Z,89.10
2019-03-09T11:38:09.106Z,89.10
2019-03-09T11:40:38.812Z,88.80
2019-03-09T11:43:08.175Z,88.50
2019-03-09T11:45:37.550Z,88.20
2019-03-09T11:48:06.907Z,87.90
2019-03-09T11:50:36.627Z,88.30
2019-03-09T11:53:05.996Z,88.40
2019-03-09T11:55:35.597Z,88.20
2019-03-09T11:58:05.591Z,88.70
2019-03-09T12:00:42.299Z,88.30
2019-03-09T12:03:11.940Z,86.90
2019-03-09T12:05:41.315Z,87.50
2019-03-09T12:08:12.032Z,87.70
2019-03-09T12:10:41.875Z,87.50
2019-03-09T12:13:11.446Z,87.10
2019-03-09T12:15:41.170Z,87.10
2019-03-09T12:18:12.621Z,87.20
2019-03-09T12:20:45.644Z,87.40
2019-03-09T12:23:22.581Z,86.90
2019-03-09T12:25:54.107Z,87.00
2019-03-09T12:28:26.010Z,86.40
2019-03-09T12:30:55.631Z,86.20
2019-03-09T12:33:25.434Z,86.00
2019-03-09T12:35:56.851Z,85.60
2019-03-09T12:38:30.149Z,85.10
2019-03-09T12:41:06.401Z,85.80
2019-03-09T12:43:41.374Z,85.90
2019-03-09T12:46:13.153Z,85.10
2019-03-09T12:48:45.736Z,85.60
2019-03-09T12:51:15.788Z,84.00
2019-03-09T12:53:45.997Z,84.40
2019-03-09T12:56:15.782Z,84.20
2019-03-09T12:58:46.236Z,84.30
2019-03-09T13:01:15.915Z,83.00
2019-03-09T13:03:46.249Z,82.70
2019-03-09T13:06:19.333Z,82.30
2019-03-09T13:08:48.820Z,82.10
2019-03-09T13:11:19.039Z,82.10
2019-03-09T13:13:48.703Z,81.60
2019-03-09T13:16:23.431Z,80.70
2019-03-09T13:18:58.484Z,81.00
2019-03-09T13:21:30.068Z,80.60
2019-03-09T13:24:03.734Z,80.60
2019-03-09T13:26:37.266Z,81.90
2019-03-09T13:29:07.835Z,83.00
2019-03-09T13:31:39.702Z,83.60
2019-03-09T13:34:09.356Z,84.50
2019-03-09T13:36:40.912Z,85.70
2019-03-09T13:39:11.027Z,85.60
2019-03-09T13:41:42.160Z,86.30
2019-03-09T13:44:12.056Z,87.20
2019-03-09T13:46:42.567Z,87.60
2019-03-09T13:49:13.757Z,88.00
2019-03-09T13:51:48.485Z,88.50
2019-03-09T13:54:19.329Z,89.00
2019-03-09T13:56:50.371Z,89.90
2019-03-09T13:59:20.048Z,90.10
2019-03-09T14:01:51.310Z,90.20
2019-03-09T14:04:27.205Z,90.40
2019-03-09T14:06:56.687Z,90.50
2019-03-09T14:09:32.912Z,90.60
2019-03-09T14:12:07.907Z,90.70
2019-03-09T14:14:42.908Z,90.70
2019-03-09T14:17:12.020Z,90.70
2019-03-09T14:19:42.988Z,90.50
2019-03-09T14:22:13.617Z,90.50
2019-03-09T14:24:45.068Z,90.30
2019-03-09T14:27:16.913Z,90.20
2019-03-09T14:29:47.422Z,90.20
2019-03-09T14:32:18.428Z,90.30
2019-03-09T14:34:50.877Z,90.00
2019-03-09T14:37:22.610Z,89.50
2019-03-09T14:39:56.407Z,89.80
2019-03-09T14:42:25.952Z,89.90
2019-03-09T14:44:57.077Z,89.60
2019-03-09T14:47:26.553Z,89.40
2019-03-09T14:49:57.497Z,89.60
2019-03-09T14:52:27.138Z,90.00
2019-03-09T14:54:59.852Z,89.40
2019-03-09T14:57:33.959Z,88.30
2019-03-09T15:00:22.350Z,88.60
2019-03-09T15:02:52.922Z,88.80
2019-03-09T15:05:26.106Z,88.70
2019-03-09T15:07:56.531Z,87.60
2019-03-09T15:10:27.384Z,87.10
2019-03-09T15:12:57.904Z,87.50
2019-03-09T15:15:27.474Z,87.30
2019-03-09T15:17:56.915Z,87.00
2019-03-09T15:20:28.397Z,86.90
2019-03-09T15:23:00.751Z,87.20
2019-03-09T15:25:31.780Z,86.70
2019-03-09T15:28:01.342Z,86.80
2019-03-09T15:30:30.899Z,87.00
2019-03-09T15:33:00.594Z,87.10
2019-03-09T15:35:30.024Z,87.60
2019-03-09T15:37:59.532Z,86.70
2019-03-09T15:40:29.202Z,86.90
2019-03-09T15:43:00.420Z,86.50
2019-03-09T15:45:29.978Z,86.30
2019-03-09T15:47:59.421Z,86.70
2019-03-09T15:50:30.967Z,85.80
2019-03-09T15:53:03.999Z,86.10
2019-03-09T15:55:33.583Z,85.30
2019-03-09T15:58:03.804Z,85.50
2019-03-09T16:00:33.983Z,86.00
2019-03-09T16:03:03.563Z,86.50
2019-03-09T16:05:35.064Z,87.10
2019-03-09T16:08:04.916Z,87.30
2019-03-09T16:10:35.531Z,87.00
2019-03-09T16:13:05.073Z,87.00
2019-03-09T16:15:34.523Z,87.80
2019-03-09T16:18:04.394Z,87.80
2019-03-09T16:20:34.163Z,87.90
2019-03-09T16:23:06.698Z,88.50
2019-03-09T16:25:39.454Z,89.10
2019-03-09T16:28:08.988Z,89.80
2019-03-09T16:30:39.044Z,89.00
2019-03-09T16:33:10.134Z,88.80
2019-03-09T16:35:39.608Z,89.00
2019-03-09T16:38:09.799Z,89.20
2019-03-09T16:40:43.623Z,89.80
2019-03-09T16:43:15.047Z,90.30
2019-03-09T16:45:44.850Z,90.90
2019-03-09T16:48:16.132Z,90.70
2019-03-09T16:50:45.754Z,90.90
2019-03-09T16:53:15.236Z,91.10
2019-03-09T16:55:44.689Z,91.10
2019-03-09T16:58:14.092Z,91.00
2019-03-09T17:00:43.480Z,91.00
2019-03-09T17:03:13.587Z,91.20
2019-03-09T17:05:43.080Z,91.60
2019-03-09T17:08:13.640Z,92.00
2019-03-09T17:10:46.548Z,92.50
2019-03-09T17:13:17.616Z,92.50
2019-03-09T17:15:49.128Z,92.70
2019-03-09T17:18:18.387Z,93.00
2019-03-09T17:20:48.626Z,93.20
2019-03-09T17:23:18.322Z,93.40
2019-03-09T17:25:49.675Z,93.40
2019-03-09T17:28:21.090Z,93.20
2019-03-09T17:30:52.358Z,93.10
2019-03-09T17:33:21.858Z,93.10
2019-03-09T17:35:52.791Z,93.20
2019-03-09T17:38:23.662Z,93.20
2019-03-09T17:40:54.986Z,93.10
2019-03-09T17:43:24.382Z,93.10
2019-03-09T17:45:55.298Z,92.90
2019-03-09T17:48:24.862Z,92.90
2019-03-09T17:50:55.808Z,93.00
2019-03-09T17:53:26.936Z,93.10
2019-03-09T17:55:56.810Z,93.10
2019-03-09T17:58:26.413Z,93.20
2019-03-09T18:00:56.210Z,93.20
2019-03-09T18:03:27.186Z,93.20
2019-03-09T18:05:57.963Z,93.20
2019-03-09T18:08:27.522Z,93.20
2019-03-09T18:11:11.714Z,93.20
2019-03-09T18:13:41.515Z,93.20
2019-03-09T18:16:11.362Z,93.20
2019-03-09T18:18:40.901Z,93.30
2019-03-09T18:21:12.153Z,93.40
2019-03-09T18:23:41.593Z,93.40
2019-03-09T18:26:11.170Z,93.40
2019-03-09T18:28:40.598Z,93.40
2019-03-09T18:31:11.832Z,93.40
2019-03-09T18:33:42.742Z,93.40
2019-03-09T18:36:12.352Z,93.40
2019-03-09T18:38:49.199Z,93.40
2019-03-09T18:41:18.691Z,93.40
2019-03-09T18:43:50.366Z,93.40
2019-03-09T18:46:22.972Z,93.40
2019-03-09T18:48:52.393Z,93.40
2019-03-09T18:51:21.786Z,93.50
2019-03-09T18:53:51.245Z,93.50
2019-03-09T18:56:22.260Z,93.50
2019-03-09T18:58:51.913Z,93.50
2019-03-09T19:01:21.453Z,93.50
2019-03-09T19:03:51.219Z,93.40
2019-03-09T19:06:20.886Z,93.40
2019-03-09T19:08:50.272Z,93.50
2019-03-09T19:11:19.864Z,93.30
2019-03-09T19:13:49.339Z,93.10
2019-03-09T19:16:21.668Z,92.80
2019-03-09T19:18:51.463Z,92.60
2019-03-09T19:21:20.819Z,92.50
2019-03-09T19:23:50.182Z,92.30
2019-03-09T19:26:19.548Z,92.10
2019-03-09T19:28:48.922Z,92.10
2019-03-09T19:31:18.301Z,92.00
2019-03-09T19:33:47.688Z,92.00
2019-03-09T19:36:17.412Z,92.00
2019-03-09T19:38:46.777Z,92.00
2019-03-09T19:41:16.155Z,92.00
2019-03-09T19:43:45.553Z,91.80
2019-03-09T19:46:14.941Z,91.70
2019-03-09T19:48:44.389Z,91.70
2019-03-09T19:51:13.761Z,91.50
2019-03-09T19:53:43.135Z,91.40
2019-03-09T19:56:14.044Z,91.30
2019-03-09T19:58:43.436Z,91.30
2019-03-09T20:01:12.805Z,91.20
2019-03-09T20:03:42.173Z,91.30
2019-03-09T20:06:11.551Z,91.30
2019-03-09T20:08:41.183Z,91.30
2019-03-09T20:11:10.557Z,91.30
2019-03-09T20:13:40.462Z,91.40
2019-03-09T20:16:09.838Z,91.50
2019-03-09T20:18:39.210Z,91.60
2019-03-09T20:21:08.583Z,91.80
2019-03-09T20:23:37.948Z,91.90
2019-03-09T20:26:07.573Z,92.10
2019-03-09T20:28:36.943Z,92.30
2019-03-09T20:31:06.390Z,92.50
2019-03-09T20:33:35.765Z,92.50
2019-03-09T20:36:05.149Z,92.60
2019-03-09T20:38:34.520Z,92.60
2019-03-09T20:41:03.921Z,92.50
2019-03-09T20:43:34.149Z,92.50
2019-03-09T20:46:03.534Z,92.50
2019-03-09T20:48:32.901Z,92.60
2019-03-09T20:51:02.276Z,93.10
2019-03-09T20:53:31.643Z,92.80
2019-03-09T20:56:01.088Z,93.10
2019-03-09T20:58:30.458Z,93.30
2019-03-09T21:00:59.829Z,93.40
2019-03-09T21:03:29.195Z,93.40
2019-03-09T21:05:58.588Z,93.50
2019-03-09T21:08:27.953Z,93.50
2019-03-09T21:11:04.013Z,93.50
2019-03-09T21:13:28.418Z,93.50
2019-03-09T21:15:57.826Z,93.30
2019-03-09T21:18:27.771Z,93.50
2019-03-09T21:20:57.147Z,93.40
2019-03-09T21:23:26.509Z,93.40
2019-03-09T21:25:55.890Z,93.40
2019-03-09T21:28:25.260Z,93.30
2019-03-09T21:30:54.641Z,93.40
2019-03-09T21:33:24.017Z,93.20
2019-03-09T21:35:53.386Z,93.30
2019-03-09T21:38:22.766Z,93.20
2019-03-09T21:40:52.135Z,93.20
2019-03-09T21:43:21.520Z,93.10
2019-03-09T21:45:50.896Z,93.40
2019-03-09T21:48:20.275Z,93.10
2019-03-09T21:50:49.651Z,93.10
2019-03-09T21:53:19.048Z,93.10
2019-03-09T21:55:48.413Z,93.00
2019-03-09T21:58:17.865Z,93.10
2019-03-09T22:00:47.484Z,93.10
2019-03-09T22:03:17.473Z,93.10
2019-03-09T22:05:47.502Z,93.00
2019-03-09T22:08:17.533Z,93.00
2019-03-09T22:10:47.939Z,92.90
2019-03-09T22:13:18.596Z,92.90
2019-03-09T22:15:47.992Z,92.90
2019-03-09T22:18:18.276Z,92.80
2019-03-09T22:20:48.269Z,92.70
2019-03-09T22:23:18.328Z,92.80
2019-03-09T22:25:47.702Z,92.80
2019-03-09T22:28:17.656Z,92.70
2019-03-09T22:30:47.026Z,92.60
2019-03-09T22:33:16.395Z,92.60
2019-03-09T22:35:45.771Z,92.60
2019-03-09T22:38:15.335Z,92.50
2019-03-09T22:40:44.799Z,92.50
2019-03-09T22:43:14.160Z,92.50
2019-03-09T22:45:43.531Z,92.50
2019-03-09T22:48:12.908Z,92.50
2019-03-09T22:50:42.280Z,92.40
2019-03-09T22:53:11.656Z,92.40
2019-03-09T22:55:41.022Z,92.40
2019-03-09T22:58:10.451Z,92.40
2019-03-09T23:00:41.191Z,92.40
2019-03-09T23:03:10.572Z,92.40
2019-03-09T23:05:40.468Z,92.30
2019-03-09T23:08:09.852Z,92.30
2019-03-09T23:10:39.889Z,92.30
2019-03-09T23:13:09.260Z,92.20
2019-03-09T23:15:38.633Z,92.30
2019-03-09T23:18:08.091Z,92.20
2019-03-09T23:20:37.471Z,92.10
2019-03-09T23:23:06.844Z,91.80
2019-03-09T23:25:36.207Z,92.10
2019-03-09T23:28:05.658Z,92.10
2019-03-09T23:30:35.027Z,92.10
2019-03-09T23:33:04.395Z,92.00
2019-03-09T23:35:33.913Z,92.00
2019-03-09T23:38:03.364Z,91.90
2019-03-09T23:40:32.742Z,91.90
2019-03-09T23:43:02.109Z,91.80
2019-03-09T23:45:31.544Z,91.80
2019-03-09T23:48:01.842Z,91.90
2019-03-09T23:50:31.229Z,91.80
2019-03-09T23:53:00.764Z,92.20
2019-03-09T23:55:30.215Z,91.80
2019-03-09T23:57:59.590Z,91.80
